Flight Track Log - Related Links

Times and Time Zones

All times are in EDT time to prevent confusion due to time zone crossing. See the SWA1718 flight status page for this flight to view local times or setup timezone preferences in your user account.

Time Position Orientation Groundspeed Altitude Reporting Facility
EDT Latitude Longitude Course Direction KTS MPH feet Rate Location/Type
Thu 10:30:45 PM 41.8000 -87.7000 90° East 182 209 2,600  Level Chicago TRACON
Thu 10:31:45 PM 41.8000 -87.6333 90° East 224 258 5,200 2,351 Climbing Chicago TRACON
Thu 10:32:22 PM 41.8072 -87.5789 80° East 221 254 6,400 2,606 Climbing Chicago Center
Thu 10:33:24 PM 41.7978 -87.4747 97° East 271 312 9,500 3,000 Climbing Chicago Center
Thu 10:34:26 PM 41.7881 -87.3669 97° East 286 329 12,600 2,732 Climbing Chicago Center
Thu 10:35:27 PM 41.7781 -87.2542 97° East 300 345 15,100 2,537 Climbing Chicago Center
Thu 10:36:00 PM 41.7500 -86.9192 90° East  Level FlightAware Approximate
Thu 10:36:29 PM 41.7647 -87.0964 96° East 347 399 17,800  Level Chicago Center
Thu 10:37:31 PM 41.7611 -86.9622 92° East 360 414 20,200 2,098 Climbing Chicago Center
Thu 10:38:32 PM 41.7636 -86.8211 89° East 374 430 22,100 1,805 Climbing Chicago Center
Thu 10:39:34 PM 41.7653 -86.6656 89° East 396 456 23,900 1,659 Climbing Chicago Center
Thu 10:40:35 PM 41.7650 -86.5100 90° East 413 475 25,500 1,659 Climbing Chicago Center
Thu 10:41:37 PM 41.7672 -86.3511 89° East 424 488 27,300 1,512 Climbing Chicago Center
Thu 10:42:38 PM 41.7900 -86.1889 79° East 439 505 28,600 1,415 Climbing Chicago Center
Thu 10:43:40 PM 41.8189 -86.0236 77° East 451 519 30,200 1,597 Climbing Chicago Center
Thu 10:44:42 PM 41.8472 -85.8597 77° East 450 518 31,900 1,561 Climbing Chicago Center
Thu 10:45:43 PM 41.8747 -85.6950 77° East 450 518 33,400 1,415 Climbing Chicago Center
Thu 10:46:45 PM 41.8961 -85.5308 80° East 445 512 34,800 774 Climbing Chicago Center
Thu 10:47:47 PM 41.9219 -85.3336 80° East 446 513 35,000 98 Climbing Cleveland Center
Thu 10:48:47 PM 41.9411 -85.1703 81° East 441 507 35,000  Level Cleveland Center
Thu 10:49:47 PM 41.9622 -85.0069 80° East 441 507 35,000  Level Cleveland Center
Thu 10:50:47 PM 41.9808 -84.8433 81° East 441 507 35,000  Level Cleveland Center
Thu 10:51:47 PM 41.9964 -84.7019 82° East 441 507 35,000  Level Cleveland Center
Thu 10:52:47 PM 42.0169 -84.5383 80° East 441 507 35,000  Level Cleveland Center
Thu 10:53:47 PM 42.0328 -84.3769 82° East 441 507 35,000  Level Cleveland Center
Thu 10:54:47 PM 42.0489 -84.1989 83° East 436 502 35,000  Level Cleveland Center
Thu 10:55:47 PM 42.0664 -84.0406 81° East 436 502 35,000  Level Cleveland Center
Thu 10:56:47 PM 42.0836 -83.8792 82° East 436 502 35,000  Level Cleveland Center
Thu 10:57:47 PM 42.0981 -83.7342 82° East 436 502 35,000  Level Cleveland Center
Thu 10:58:47 PM 42.1147 -83.5756 82° East 431 496 35,000 -250 Level Cleveland Center
Thu 10:59:47 PM 42.1336 -83.4139 81° East 437 503 34,500 -700 Descending Cleveland Center
Thu 11:00:47 PM 42.1519 -83.2494 81° East 437 503 33,600 -900 Descending Cleveland Center
Thu 11:01:47 PM 42.1661 -83.0819 83° East 437 503 32,700 -950 Descending Cleveland Center
Thu 11:02:47 PM 42.1842 -82.9203 81° East 442 509 31,700 -850 Descending Cleveland Center
Thu 11:03:47 PM 42.2000 -82.7525 83° East 442 509 31,000 -600 Descending Cleveland Center
Thu 11:04:47 PM 42.2175 -82.5878 82° East 442 509 30,500 -700 Descending Cleveland Center
Thu 11:05:47 PM 42.2331 -82.4172 83° East 442 509 29,600 -950 Descending Cleveland Center
Thu 11:06:47 PM 42.2481 -82.2522 83° East 442 509 28,600 -1,100 Descending Cleveland Center
Thu 11:07:47 PM 42.2672 -82.0731 82° East 442 509 27,400 -800 Descending Cleveland Center
Thu 11:08:47 PM 42.2794 -81.9106 84° East 442 509 27,000 -200 Descending Cleveland Center
Thu 11:09:47 PM 42.2958 -81.7508 82° East 432 497 27,000  Level Cleveland Center
Thu 11:10:47 PM 42.3075 -81.6108 84° East 426 490 27,000  Level Cleveland Center
Thu 11:11:47 PM 42.3236 -81.4536 82° East 419 482 27,000  Level Cleveland Center
Thu 11:12:47 PM 42.3350 -81.3022 84° East 419 482 27,000  Level Cleveland Center
Thu 11:13:47 PM 42.3483 -81.1478 83° East 419 482 27,000  Level Cleveland Center
Thu 11:14:47 PM 42.3614 -80.9906 84° East 414 476 27,000  Level Cleveland Center
Thu 11:15:47 PM 42.3933 -80.8250 75° East 414 476 27,000  Level Cleveland Center
Thu 11:16:47 PM 42.4311 -80.6731 71° East 414 476 27,000  Level Cleveland Center
Thu 11:17:47 PM 42.4686 -80.5214 71° East 422 486 27,000  Level Cleveland Center
Thu 11:18:47 PM 42.5058 -80.3636 72° East 422 486 27,000 -99 Level Cleveland Center
Thu 11:19:48 PM 42.5472 -80.2139 69° East 427 491 26,800 -1,150 Descending Cleveland Center
Thu 11:20:47 PM 42.5819 -80.0586 73° East 427 491 24,700 -2,773 Descending Cleveland Center
Thu 11:21:47 PM 42.6228 -79.9061 70° East 427 491 21,300 -3,300 Descending Cleveland Center
Thu 11:22:47 PM 42.6572 -79.7531 73° East 427 491 18,100 -2,800 Descending Cleveland Center
Thu 11:23:47 PM 42.6936 -79.6086 71° East 422 486 15,700 -2,600 Descending Cleveland Center
Thu 11:24:47 PM 42.7236 -79.4697 74° East 397 457 12,900 -2,500 Descending Cleveland Center
Thu 11:25:47 PM 42.7517 -79.3475 73° East 365 420 10,700 -1,750 Descending Cleveland Center
Thu 11:26:47 PM 42.7775 -79.2453 71° East 306 352 9,400 -1,800 Descending Cleveland Center
Thu 11:27:47 PM 42.7994 -79.1458 73° East 269 310 7,100 -2,150 Descending Cleveland Center
Thu 11:28:47 PM 42.8192 -79.0606 72° East 264 304 5,100 -1,700 Descending Cleveland Center
Thu 11:29:47 PM 42.8408 -78.9636 73° East 250 288 3,700 -1,300 Descending Cleveland Center
Thu 11:30:47 PM 42.8583 -78.8922 71° East 210 242 2,500 -700 Descending Cleveland Center
Thu 11:31:47 PM 42.8742 -78.8267 72° East 181 208 2,300 -450 Descending Cleveland Center
Thu 11:32:47 PM 42.9028 -78.7833 48° Northeast 169 194 1,600 -700 Descending Cleveland Center
Thu 11:34:00 PM 42.9333 -78.7167 48° Northeast  Level FlightAware Approximate
Thu 11:41:00 PM 42.9404 -78.7306 48° Northeast  Level Estimated

Login

Don't have an account? Register now (free) for customized features, flight alerts, and more!